Terminal Aerodrome Forecast
Issued by NWS

Home | Current Version | Previous Version | Text Only | Print | Product List | Glossary On
Versions: 1 2 3 4 5 6 7 8 9 10 11
000
FTUS44 KBMX 281100
TAFANB
TAF
KANB 281138Z 2812/2912 15005KT 4SM RA BR SCT005 OVC015
      TEMPO 2812/2816 4SM -RA BR OVC007
     FM281900 28004KT 5SM -RA BR OVC007
     FM282200 34007KT 5SM -RA BR BKN005 OVC012=

USA.gov is the U.S. government's official web portal to all federal, state and local government web resources and services.